< < Back
Terminal Aerodrome Forecast


Current Version              Previous Versions:   1  2  3  4  5  6  7  8  9  

Terminal Aerodrome Forecast

104
FTUS44 KOHX 170500
TAFBNA
TAF
KBNA 170520Z 1706/1806 16003KT P6SM SCT250
     FM171400 17011KT P6SM FEW040 BKN250=

Latest METAR

761
SAUS70 KWBC 171000 RRG
MTRBNA
METAR KBNA 170953Z 18006KT 10SM FEW200 08/00 A3029 RMK AO2 SLP256
T00830000


USA.gov is the U.S. government's official web portal to all federal, state and local government web resources and services.